createdAt,value
2022-09-23T00:02:13.034Z,98059.66
2022-09-23T00:04:42.281Z,98028.31
2022-09-23T00:07:10.428Z,98024.34
2022-09-23T00:09:40.244Z,98064.97
2022-09-23T00:12:10.251Z,98020.50
2022-09-23T00:14:39.729Z,98028.00
2022-09-23T00:17:08.085Z,98073.94
2022-09-23T00:19:36.413Z,98063.31
2022-09-23T00:22:04.623Z,98042.09
2022-09-23T00:24:33.490Z,98069.78
2022-09-23T00:27:02.994Z,98065.66
2022-09-23T00:29:32.916Z,98070.63
2022-09-23T00:32:01.263Z,98063.47
2022-09-23T00:34:29.729Z,98054.38
2022-09-23T00:36:58.000Z,98064.47
2022-09-23T00:39:26.518Z,98101.50
2022-09-23T00:41:56.094Z,98115.31
2022-09-23T00:44:47.189Z,98097.84
2022-09-23T00:47:20.475Z,98138.06
2022-09-23T00:49:52.838Z,98080.63
2022-09-23T00:52:24.391Z,98105.97
2022-09-23T00:54:56.003Z,98061.53
2022-09-23T00:57:25.657Z,98101.84
2022-09-23T00:59:55.065Z,98086.75
2022-09-23T01:02:23.850Z,98089.53
2022-09-23T01:04:52.569Z,98061.84
2022-09-23T01:07:20.732Z,98063.81
2022-09-23T01:09:50.205Z,98015.91
2022-09-23T01:12:36.182Z,98076.78
2022-09-23T01:15:16.489Z,98095.19
2022-09-23T01:17:53.274Z,98068.97
2022-09-23T01:20:42.837Z,98046.75
2022-09-23T01:23:30.019Z,98014.53
2022-09-23T01:26:20.350Z,97948.34
2022-09-23T01:29:12.142Z,97959.13
2022-09-23T01:31:47.192Z,97913.31
2022-09-23T01:34:22.605Z,97911.81
2022-09-23T01:36:56.572Z,97889.25
2022-09-23T01:39:36.196Z,97862.06
2022-09-23T01:42:09.302Z,97864.38
2022-09-23T01:44:43.125Z,97865.38
2022-09-23T01:47:17.620Z,97809.75
2022-09-23T01:49:52.243Z,97860.25
2022-09-23T01:52:28.834Z,97866.22
2022-09-23T01:55:02.275Z,97828.13
2022-09-23T01:57:34.586Z,97883.81
2022-09-23T02:00:08.007Z,97856.97
2022-09-23T02:02:42.199Z,97946.50
2022-09-23T02:05:15.604Z,97975.88
2022-09-23T02:07:50.503Z,97954.16
2022-09-23T02:10:26.511Z,97973.22
2022-09-23T02:13:01.328Z,98023.16
2022-09-23T02:15:34.996Z,98031.97
2022-09-23T02:18:11.139Z,98025.16
2022-09-23T02:20:40.699Z,97980.03
2022-09-23T02:23:13.525Z,97987.69
2022-09-23T02:25:49.956Z,97992.31
2022-09-23T02:28:20.627Z,97982.84
2022-09-23T02:30:56.207Z,97974.41
2022-09-23T02:33:34.896Z,97965.59
2022-09-23T02:36:11.141Z,97946.19
2022-09-23T02:38:44.154Z,97941.88
2022-09-23T02:41:16.850Z,97937.53
2022-09-23T02:43:51.102Z,97928.06
2022-09-23T02:46:19.728Z,97896.28
2022-09-23T02:48:54.516Z,97877.03
2022-09-23T02:51:25.382Z,97902.69
2022-09-23T02:53:56.450Z,97904.22
2022-09-23T02:56:25.875Z,97896.06
2022-09-23T02:58:55.836Z,97864.59
2022-09-23T03:01:35.334Z,97873.22
2022-09-23T03:04:14.823Z,97864.59
2022-09-23T03:06:57.940Z,97830.81
2022-09-23T03:09:31.241Z,97847.19
2022-09-23T03:12:09.668Z,97829.44
2022-09-23T03:14:43.727Z,97805.06
2022-09-23T03:17:16.056Z,97737.84
2022-09-23T03:19:51.946Z,97769.13
2022-09-23T03:22:25.153Z,97700.56
2022-09-23T03:24:55.558Z,97688.00
2022-09-23T03:27:26.839Z,97687.44
2022-09-23T03:29:56.500Z,97674.03
2022-09-23T03:32:27.984Z,97630.66
2022-09-23T03:34:59.762Z,97641.91
2022-09-23T03:37:33.585Z,97611.25
2022-09-23T03:40:09.600Z,97586.28
2022-09-23T03:42:39.007Z,97569.59
2022-09-23T03:45:13.109Z,97562.94
2022-09-23T03:47:42.346Z,97549.56
2022-09-23T03:50:13.498Z,97528.69
2022-09-23T03:52:41.558Z,97492.94
2022-09-23T03:55:11.188Z,97471.28
2022-09-23T03:57:39.824Z,97427.94
2022-09-23T04:00:09.347Z,97393.91
2022-09-23T04:02:37.217Z,97374.56
2022-09-23T04:05:07.941Z,97362.13
2022-09-23T04:07:37.339Z,97331.22
2022-09-23T04:10:06.033Z,97314.03
2022-09-23T04:12:34.123Z,97295.22
2022-09-23T04:15:01.926Z,97288.28
2022-09-23T04:17:30.183Z,97294.91
2022-09-23T04:19:58.436Z,97269.59
2022-09-23T04:22:26.387Z,97272.44
2022-09-23T04:24:58.802Z,97301.31
2022-09-23T04:27:26.727Z,97310.44
2022-09-23T04:29:54.522Z,97336.53
2022-09-23T04:32:22.666Z,97362.47
2022-09-23T04:34:50.718Z,97363.34
2022-09-23T04:37:18.677Z,97409.97
2022-09-23T04:39:46.617Z,97439.53
2022-09-23T04:42:15.901Z,97462.84
2022-09-23T04:44:43.948Z,97473.16
2022-09-23T04:47:12.234Z,97502.72
2022-09-23T04:49:40.245Z,97494.81
2022-09-23T04:52:08.280Z,97547.06
2022-09-23T04:54:37.171Z,97538.66
2022-09-23T04:57:05.537Z,97599.53
2022-09-23T04:59:35.224Z,97604.56
2022-09-23T05:02:04.512Z,97641.13
2022-09-23T05:04:34.571Z,97694.44
2022-09-23T05:07:03.577Z,97677.78
2022-09-23T05:09:31.883Z,97745.63
2022-09-23T05:11:59.732Z,97798.47
2022-09-23T05:14:27.716Z,97830.97
2022-09-23T05:16:57.180Z,97914.69
2022-09-23T05:19:25.357Z,97980.03
2022-09-23T05:21:53.386Z,98036.16
2022-09-23T05:24:21.883Z,98032.16
2022-09-23T05:26:49.888Z,98081.94
2022-09-23T05:29:18.190Z,98062.22
2022-09-23T05:31:46.396Z,98143.72
2022-09-23T05:34:15.788Z,98145.72
2022-09-23T05:36:46.402Z,98221.28
2022-09-23T05:39:14.358Z,98272.97
2022-09-23T05:41:43.559Z,98249.69
2022-09-23T05:44:13.553Z,98287.59
2022-09-23T05:46:41.606Z,98317.66
2022-09-23T05:49:10.041Z,98327.81
2022-09-23T05:51:39.601Z,98422.25
2022-09-23T05:54:08.759Z,98428.41
2022-09-23T05:56:38.092Z,98465.31
2022-09-23T05:59:07.855Z,98534.88
2022-09-23T06:01:38.758Z,98525.38
2022-09-23T06:04:08.605Z,98561.66
2022-09-23T06:06:41.524Z,98599.78
2022-09-23T06:09:13.548Z,98664.72
2022-09-23T06:11:42.826Z,98722.41
2022-09-23T06:14:13.237Z,98746.16
2022-09-23T06:16:41.217Z,98846.38
2022-09-23T06:19:09.989Z,98895.72
2022-09-23T06:21:40.872Z,98918.53
2022-09-23T06:24:13.375Z,98972.75
2022-09-23T06:26:43.772Z,99009.31
2022-09-23T06:29:12.959Z,99021.81
2022-09-23T06:31:42.032Z,99048.66
2022-09-23T06:34:13.646Z,99104.72
2022-09-23T06:36:45.924Z,99125.81
2022-09-23T06:39:15.338Z,99170.91
2022-09-23T06:41:43.989Z,99165.00
2022-09-23T06:44:11.845Z,99139.41
2022-09-23T06:46:40.023Z,99176.41
2022-09-23T06:49:08.587Z,99176.56
2022-09-23T06:51:36.717Z,99176.88
2022-09-23T06:54:06.407Z,99185.34
2022-09-23T06:56:38.729Z,99243.38
2022-09-23T06:59:09.322Z,99281.75
2022-09-23T07:01:37.394Z,99312.84
2022-09-23T07:04:07.861Z,99381.78
2022-09-23T07:06:36.250Z,99410.53
2022-09-23T07:09:06.968Z,99379.47
2022-09-23T07:11:35.211Z,99388.31
2022-09-23T07:14:03.394Z,99374.44
2022-09-23T07:16:31.773Z,99369.06
2022-09-23T07:18:59.977Z,99414.56
2022-09-23T07:21:28.092Z,99433.63
2022-09-23T07:23:58.227Z,99465.06
2022-09-23T07:26:27.974Z,99452.78
2022-09-23T07:28:57.111Z,99472.94
2022-09-23T07:31:39.379Z,99466.19
2022-09-23T07:34:10.104Z,99391.00
2022-09-23T07:36:40.817Z,99414.88
2022-09-23T07:39:11.529Z,99411.53
2022-09-23T07:41:41.713Z,99424.03
2022-09-23T07:44:11.790Z,99456.66
2022-09-23T07:46:40.188Z,99399.78
2022-09-23T07:49:08.450Z,99445.19
2022-09-23T07:51:39.886Z,99458.34
2022-09-23T07:54:10.899Z,99498.81
2022-09-23T07:56:40.498Z,99471.94
2022-09-23T07:59:12.091Z,99580.16
2022-09-23T08:01:41.873Z,99638.44
2022-09-23T08:04:14.581Z,99673.84
2022-09-23T08:06:43.685Z,99715.09
2022-09-23T08:09:13.031Z,99678.38
2022-09-23T08:11:43.084Z,99758.34
2022-09-23T08:14:13.538Z,99757.00
2022-09-23T08:16:42.250Z,99763.88
2022-09-23T08:19:10.683Z,99721.28
2022-09-23T08:21:39.426Z,99708.84
2022-09-23T08:24:08.234Z,99856.94
2022-09-23T08:26:36.924Z,99842.03
2022-09-23T08:29:09.823Z,99843.03
2022-09-23T08:31:37.937Z,99867.31
2022-09-23T08:34:06.768Z,99904.88
2022-09-23T08:36:35.630Z,99966.88
2022-09-23T08:39:04.228Z,99981.69
2022-09-23T08:41:41.974Z,99985.53
2022-09-23T08:44:17.325Z,100076.63
2022-09-23T08:46:50.655Z,100172.81
2022-09-23T08:49:27.139Z,100203.13
2022-09-23T08:51:57.293Z,100260.31
2022-09-23T08:54:29.219Z,100254.94
2022-09-23T08:57:00.865Z,100342.06
2022-09-23T08:59:41.562Z,100357.16
2022-09-23T09:02:16.873Z,100272.72
2022-09-23T09:05:06.008Z,100269.66
2022-09-23T09:07:37.615Z,100286.00
2022-09-23T09:10:12.001Z,100321.19
2022-09-23T09:12:44.664Z,100408.19
2022-09-23T09:15:17.086Z,100426.06
2022-09-23T09:17:53.986Z,100451.44
2022-09-23T09:20:32.523Z,100520.88
2022-09-23T09:23:01.133Z,100553.03
2022-09-23T09:25:47.759Z,100530.03
2022-09-23T09:28:19.968Z,100681.78
2022-09-23T09:30:55.071Z,100655.81
2022-09-23T09:33:31.001Z,100771.34
2022-09-23T09:36:19.059Z,100770.38
2022-09-23T09:38:47.628Z,100705.81
2022-09-23T09:41:18.157Z,100863.81
2022-09-23T09:43:52.507Z,100882.75
2022-09-23T09:46:46.187Z,100866.34
2022-09-23T09:49:24.031Z,100923.75
2022-09-23T09:52:13.008Z,100905.94
2022-09-23T09:54:41.439Z,100993.06
2022-09-23T09:57:19.815Z,100995.75
2022-09-23T09:59:47.846Z,101105.13
2022-09-23T10:02:27.533Z,101165.69
2022-09-23T10:04:58.355Z,101242.91
2022-09-23T10:07:29.262Z,101248.16
2022-09-23T10:10:01.803Z,101306.50
2022-09-23T10:12:45.844Z,101422.44
2022-09-23T10:15:28.720Z,101601.75
2022-09-23T10:18:01.637Z,101594.66
2022-09-23T10:20:38.198Z,101425.84
2022-09-23T10:23:15.488Z,101451.22
2022-09-23T10:25:43.790Z,101467.84
2022-09-23T10:28:40.477Z,101384.31
2022-09-23T10:31:11.048Z,101271.09
2022-09-23T10:33:44.097Z,101210.13
2022-09-23T10:36:12.565Z,101197.13
2022-09-23T10:38:40.591Z,101077.66
2022-09-23T10:41:35.802Z,101003.78
2022-09-23T10:44:39.418Z,101073.41
2022-09-23T10:47:20.273Z,101073.00
2022-09-23T10:50:00.424Z,101035.75
2022-09-23T10:52:43.108Z,101000.13
2022-09-23T10:55:24.992Z,100984.25
2022-09-23T10:58:12.303Z,101005.50
2022-09-23T11:00:51.873Z,100976.50
2022-09-23T11:03:50.792Z,101046.66
2022-09-23T11:06:26.461Z,101036.88
2022-09-23T11:09:09.073Z,101130.03
2022-09-23T11:11:49.572Z,101126.34
2022-09-23T11:14:32.821Z,101174.75
2022-09-23T11:17:29.775Z,101212.63
2022-09-23T11:20:35.560Z,101305.66
2022-09-23T11:23:35.928Z,101331.06
2022-09-23T11:26:15.299Z,101365.19
2022-09-23T11:29:21.262Z,101411.97
2022-09-23T11:32:01.450Z,101354.56
2022-09-23T11:35:05.056Z,101408.69
2022-09-23T11:37:38.263Z,101381.06
2022-09-23T11:40:16.935Z,101383.75
2022-09-23T11:42:53.452Z,101365.06
2022-09-23T11:45:25.992Z,101362.66
2022-09-23T11:47:59.559Z,101373.41
2022-09-23T11:50:33.849Z,101394.97
2022-09-23T11:53:08.100Z,101415.97
2022-09-23T11:55:55.665Z,101369.00
2022-09-23T11:58:30.496Z,101434.06
2022-09-23T12:01:02.623Z,101553.50
2022-09-23T12:03:44.513Z,101574.25
2022-09-23T12:06:16.242Z,101605.09
2022-09-23T12:08:44.605Z,101643.69
2022-09-23T12:11:26.406Z,101729.31
2022-09-23T12:13:59.399Z,101792.63
2022-09-23T12:16:46.063Z,101795.22
2022-09-23T12:19:29.480Z,101835.72
2022-09-23T12:22:09.046Z,101840.38
2022-09-23T12:24:58.010Z,101848.94
2022-09-23T12:27:36.246Z,101814.97
2022-09-23T12:30:17.503Z,101802.56
2022-09-23T12:32:46.501Z,101721.50
2022-09-23T12:35:25.292Z,101805.47
2022-09-23T12:37:53.841Z,101845.78
2022-09-23T12:40:30.466Z,101849.50
2022-09-23T12:43:01.311Z,101830.47
2022-09-23T12:45:39.094Z,101669.84
2022-09-23T12:48:44.199Z,101618.44
2022-09-23T12:51:23.269Z,101723.34
2022-09-23T12:54:25.778Z,101694.13
2022-09-23T12:57:10.910Z,101669.56
2022-09-23T12:59:58.726Z,101666.72
2022-09-23T13:02:34.865Z,101581.41
2022-09-23T13:05:39.534Z,101532.84
2022-09-23T13:08:13.190Z,101531.44
2022-09-23T13:10:45.081Z,101501.94
2022-09-23T13:13:24.210Z,101423.50
2022-09-23T13:15:55.435Z,101347.91
2022-09-23T13:18:55.831Z,101268.31
2022-09-23T13:22:06.970Z,101327.66
2022-09-23T13:24:44.216Z,101239.38
2022-09-23T13:27:30.273Z,101257.38
2022-09-23T13:30:02.165Z,101209.91
2022-09-23T13:32:34.358Z,101241.53
2022-09-23T13:35:05.401Z,101216.44
2022-09-23T13:37:45.145Z,101336.06
2022-09-23T13:40:23.929Z,101328.38
2022-09-23T13:42:58.585Z,101271.97
2022-09-23T13:45:28.618Z,101214.03
2022-09-23T13:48:02.478Z,101312.63
2022-09-23T13:50:34.865Z,101250.03
2022-09-23T13:53:10.029Z,101211.94
2022-09-23T13:55:41.404Z,101094.41
2022-09-23T13:58:18.768Z,101117.31
2022-09-23T14:00:47.204Z,101117.03
2022-09-23T14:03:20.173Z,101073.13
2022-09-23T14:05:48.728Z,101056.41
2022-09-23T14:08:18.326Z,101006.31
2022-09-23T14:10:47.434Z,100939.00
2022-09-23T14:13:22.378Z,100874.06
2022-09-23T14:15:55.981Z,100876.75
2022-09-23T14:18:30.853Z,100855.25
2022-09-23T14:20:59.578Z,100840.28
2022-09-23T14:23:29.083Z,100807.47
2022-09-23T14:25:59.142Z,100830.66
2022-09-23T14:28:28.899Z,100769.91
2022-09-23T14:30:58.611Z,100678.22
2022-09-23T14:33:29.027Z,100641.63
2022-09-23T14:36:06.670Z,100707.88
2022-09-23T14:38:50.835Z,100680.75
2022-09-23T14:41:23.986Z,100608.88
2022-09-23T14:43:55.939Z,100578.34
2022-09-23T14:46:25.740Z,100533.56
2022-09-23T14:49:00.881Z,100531.72
2022-09-23T14:51:50.892Z,100503.41
2022-09-23T14:54:33.877Z,100434.66
2022-09-23T14:57:03.014Z,100422.25
2022-09-23T14:59:35.706Z,100385.56
2022-09-23T15:02:03.763Z,100391.22
2022-09-23T15:04:35.480Z,100431.84
2022-09-23T15:07:08.125Z,100345.31
2022-09-23T15:09:41.071Z,100282.34
2022-09-23T15:12:14.701Z,100242.34
2022-09-23T15:14:47.334Z,100164.00
2022-09-23T15:17:24.976Z,100225.56
2022-09-23T15:19:56.699Z,100214.16
2022-09-23T15:22:26.287Z,100193.31
2022-09-23T15:25:09.198Z,100154.72
2022-09-23T15:27:37.306Z,100138.66
2022-09-23T15:30:17.155Z,100138.19
2022-09-23T15:32:46.191Z,100151.31
2022-09-23T15:35:16.523Z,100153.00
2022-09-23T15:37:46.000Z,100144.97
2022-09-23T15:40:27.015Z,100106.78
2022-09-23T15:42:57.481Z,100061.78
2022-09-23T15:45:32.128Z,100043.72
2022-09-23T15:48:04.405Z,100034.84
2022-09-23T15:50:35.137Z,100000.38
2022-09-23T15:53:03.454Z,99969.69
2022-09-23T15:55:33.766Z,99966.63
2022-09-23T15:58:01.820Z,99909.91
2022-09-23T16:00:29.847Z,99938.00
2022-09-23T16:02:57.963Z,99882.56
2022-09-23T16:05:33.109Z,99862.50
2022-09-23T16:08:07.887Z,99868.22
2022-09-23T16:10:38.818Z,99831.84
2022-09-23T16:13:11.519Z,99727.09
2022-09-23T16:15:39.892Z,99641.25
2022-09-23T16:18:08.684Z,99594.16
2022-09-23T16:20:39.078Z,99539.94
2022-09-23T16:23:09.543Z,99442.25
2022-09-23T16:25:38.983Z,99364.31
2022-09-23T16:28:11.972Z,99282.03
2022-09-23T16:30:40.110Z,99190.00
2022-09-23T16:33:08.018Z,99092.75
2022-09-23T16:35:35.982Z,99026.13
2022-09-23T16:38:04.548Z,98907.16
2022-09-23T16:40:33.188Z,98848.94
2022-09-23T16:43:05.465Z,98762.56
2022-09-23T16:45:33.578Z,98725.47
2022-09-23T16:48:02.480Z,98660.31
2022-09-23T16:50:32.087Z,98625.84
2022-09-23T16:53:00.406Z,98554.72
2022-09-23T16:55:28.610Z,98516.94
2022-09-23T16:57:56.989Z,98480.13
2022-09-23T17:00:43.646Z,98443.53
2022-09-23T17:03:31.447Z,98402.78
2022-09-23T17:06:02.435Z,98359.75
2022-09-23T17:08:34.335Z,98323.63
2022-09-23T17:11:02.243Z,98291.41
2022-09-23T17:13:31.135Z,98222.94
2022-09-23T17:16:01.887Z,98225.06
2022-09-23T17:18:30.234Z,98163.47
2022-09-23T17:21:00.301Z,98143.19
2022-09-23T17:23:28.562Z,98112.31
2022-09-23T17:25:56.455Z,98121.44
2022-09-23T17:28:25.085Z,98098.03
2022-09-23T17:30:58.797Z,98064.81
2022-09-23T17:33:29.878Z,98043.91
2022-09-23T17:36:00.273Z,97998.59
2022-09-23T17:38:29.552Z,97981.81
2022-09-23T17:41:03.385Z,97970.72
2022-09-23T17:43:31.777Z,97937.88
2022-09-23T17:46:05.511Z,97893.41
2022-09-23T17:48:36.710Z,97895.72
2022-09-23T17:51:07.194Z,97888.91
2022-09-23T17:53:37.101Z,97862.38
2022-09-23T17:56:06.655Z,97841.31
2022-09-23T17:58:37.228Z,97840.84
2022-09-23T18:01:05.854Z,97799.91
2022-09-23T18:03:35.786Z,97791.59
2022-09-23T18:06:11.599Z,97733.47
2022-09-23T18:08:39.829Z,97743.53
2022-09-23T18:11:19.473Z,97713.22
2022-09-23T18:13:51.897Z,97662.44
2022-09-23T18:16:21.508Z,97676.28
2022-09-23T18:18:55.093Z,97653.25
2022-09-23T18:21:24.542Z,97620.81
2022-09-23T18:23:52.684Z,97613.84
2022-09-23T18:26:22.938Z,97605.25
2022-09-23T18:28:53.012Z,97588.50
2022-09-23T18:31:22.585Z,97539.44
2022-09-23T18:33:51.868Z,97507.22
2022-09-23T18:36:22.601Z,97525.69
2022-09-23T18:38:51.543Z,97540.25
2022-09-23T18:41:20.188Z,97526.00
2022-09-23T18:43:48.807Z,97485.66
2022-09-23T18:46:19.239Z,97508.09
2022-09-23T18:49:05.225Z,97432.63
2022-09-23T18:51:37.261Z,97433.88
2022-09-23T18:54:07.123Z,97417.50
2022-09-23T18:56:41.337Z,97433.66
2022-09-23T18:59:12.335Z,97392.38
2022-09-23T19:01:40.759Z,97408.50
2022-09-23T19:04:09.660Z,97409.69
2022-09-23T19:06:39.362Z,97382.78
2022-09-23T19:09:08.190Z,97340.06
2022-09-23T19:11:39.750Z,97389.84
2022-09-23T19:14:11.183Z,97356.66
2022-09-23T19:16:41.048Z,97371.16
2022-09-23T19:19:09.967Z,97386.38
2022-09-23T19:21:39.400Z,97355.84
2022-09-23T19:24:08.729Z,97300.53
2022-09-23T19:26:39.822Z,97358.94
2022-09-23T19:29:09.412Z,97357.94
2022-09-23T19:31:40.656Z,97355.63
2022-09-23T19:34:13.005Z,97314.88
2022-09-23T19:36:44.951Z,97328.00
2022-09-23T19:39:17.545Z,97307.69
2022-09-23T19:41:46.330Z,97288.50
2022-09-23T19:44:14.465Z,97268.84
2022-09-23T19:46:45.420Z,97186.50
2022-09-23T19:49:14.264Z,97189.78
2022-09-23T19:51:44.566Z,97163.53
2022-09-23T19:54:13.143Z,97172.91
2022-09-23T19:56:41.683Z,97155.56
2022-09-23T19:59:09.833Z,97170.19
2022-09-23T20:01:38.132Z,97165.25
2022-09-23T20:04:06.331Z,97095.94
2022-09-23T20:06:36.256Z,97135.84
2022-09-23T20:09:06.773Z,97123.66
2022-09-23T20:11:35.177Z,97130.91
2022-09-23T20:14:07.070Z,97125.97
2022-09-23T20:16:37.268Z,97126.63
2022-09-23T20:19:05.911Z,97113.75
2022-09-23T20:21:35.545Z,97098.19
2022-09-23T20:24:06.984Z,97045.88
2022-09-23T20:26:52.260Z,97101.84
2022-09-23T20:29:20.311Z,97058.06
2022-09-23T20:31:48.762Z,97083.03
2022-09-23T20:34:16.744Z,97064.22
2022-09-23T20:36:44.733Z,97044.50
2022-09-23T20:39:14.352Z,97062.22
2022-09-23T20:41:43.160Z,97003.47
2022-09-23T20:44:13.030Z,97054.19
2022-09-23T20:46:45.474Z,97064.59
2022-09-23T20:49:16.315Z,97044.84
2022-09-23T20:51:51.182Z,97067.94
2022-09-23T20:54:20.897Z,97017.03
2022-09-23T20:56:49.061Z,97031.31
2022-09-23T20:59:18.094Z,97054.00
2022-09-23T21:01:47.630Z,97063.41
2022-09-23T21:04:16.045Z,97055.00
2022-09-23T21:06:44.629Z,97095.25
2022-09-23T21:09:15.975Z,97081.63
2022-09-23T21:11:45.590Z,97130.44
2022-09-23T21:14:13.852Z,97155.72
2022-09-23T21:16:42.661Z,97168.06
2022-09-23T21:19:10.900Z,97172.19
2022-09-23T21:21:39.217Z,97175.00
2022-09-23T21:24:45.320Z,97180.78
2022-09-23T21:27:00.070Z,97178.66
2022-09-23T21:29:28.241Z,97186.06
2022-09-23T21:31:56.203Z,97167.63
2022-09-23T21:34:26.116Z,97163.50
2022-09-23T21:36:54.746Z,97100.22
2022-09-23T21:39:22.691Z,97125.72
2022-09-23T21:41:51.303Z,97120.78
2022-09-23T21:44:20.836Z,97133.41
2022-09-23T21:46:49.245Z,97083.22
2022-09-23T21:49:17.569Z,97143.69
2022-09-23T21:51:45.601Z,97141.84
2022-09-23T21:54:16.130Z,97118.78
2022-09-23T21:56:45.282Z,97133.41
2022-09-23T21:59:13.598Z,97073.94
2022-09-23T22:01:44.985Z,97114.25
2022-09-23T22:04:17.247Z,97108.50
2022-09-23T22:06:46.392Z,97114.44
2022-09-23T22:09:16.922Z,97117.06
2022-09-23T22:12:02.810Z,97111.78
2022-09-23T22:14:31.286Z,97098.97
2022-09-23T22:17:03.769Z,97077.88
2022-09-23T22:19:35.553Z,97100.25
2022-09-23T22:22:07.953Z,97111.13
2022-09-23T22:27:32.232Z,97122.53
2022-09-23T22:30:17.416Z,97121.38
2022-09-23T22:32:54.248Z,97097.69
2022-09-23T22:35:23.239Z,97114.78
2022-09-23T22:37:51.502Z,97095.41
2022-09-23T22:40:19.893Z,97130.78
2022-09-23T22:42:50.325Z,97133.59
2022-09-23T22:45:18.330Z,97120.44
2022-09-23T22:47:47.958Z,97139.53
2022-09-23T22:50:16.329Z,97134.41
2022-09-23T22:52:44.329Z,97140.88
2022-09-23T22:55:13.264Z,97131.00
2022-09-23T22:57:41.582Z,97108.47
2022-09-23T23:00:12.228Z,97167.97
2022-09-23T23:02:42.344Z,97181.03
2022-09-23T23:05:14.847Z,97177.72
2022-09-23T23:07:43.107Z,97139.38
2022-09-23T23:10:11.225Z,97172.28
2022-09-23T23:12:39.135Z,97183.19
2022-09-23T23:15:09.688Z,97193.06
2022-09-23T23:17:40.499Z,97206.78
2022-09-23T23:20:09.489Z,97198.91
2022-09-23T23:22:38.845Z,97229.25
2022-09-23T23:25:07.799Z,97236.19
2022-09-23T23:27:35.919Z,97256.69
2022-09-23T23:30:04.021Z,97258.84
2022-09-23T23:32:32.866Z,97275.56
2022-09-23T23:35:00.936Z,97259.25
2022-09-23T23:37:30.149Z,97294.38
2022-09-23T23:40:02.096Z,97259.25
2022-09-23T23:42:31.439Z,97313.38
2022-09-23T23:44:59.544Z,97316.03
2022-09-23T23:47:27.977Z,97323.00
2022-09-23T23:49:55.967Z,97283.19
2022-09-23T23:52:23.917Z,97305.66
2022-09-23T23:54:55.134Z,97342.81
2022-09-23T23:57:24.567Z,97317.75
2022-09-23T23:59:52.536Z,97329.00
